Terminal Aerodrome Forecast
Issued by NWS Wilmington, NC

Home | Current Version | Previous Version | Text Only | Print | Product List | Glossary On
Versions: 1 2 3 4 5 6 7 8 9 10 11 12 13 14
000
FTUS42 KILM 300520
TAFMYR
TAF
KMYR 300520Z 3006/3106 24004KT P6SM FEW080 SCT120
     FM301300 23008KT P6SM SCT050
     FM301700 20012G18KT P6SM VCTS SCT040CB BKN060
     FM310200 21010KT P6SM SCT250
      AMD LTD TO CLD VIS AND WIND TIL 301100=

USA.gov is the U.S. government's official web portal to all federal, state and local government web resources and services.